createdAt,value
2018-12-20T00:01:20.876Z,10.30
2018-12-20T00:03:49.715Z,9.90
2018-12-20T00:06:20.109Z,9.83
2018-12-20T00:08:48.715Z,8.73
2018-12-20T00:11:18.014Z,9.80
2018-12-20T00:13:46.453Z,8.40
2018-12-20T00:16:15.430Z,8.50
2018-12-20T00:18:44.210Z,7.70
2018-12-20T00:21:13.407Z,8.67
2018-12-20T00:23:42.095Z,9.00
2018-12-20T00:26:10.696Z,8.90
2018-12-20T00:28:39.558Z,8.33
2018-12-20T00:31:13.601Z,7.80
2018-12-20T00:33:39.824Z,9.07
2018-12-20T00:36:09.001Z,8.27
2018-12-20T00:38:38.292Z,8.10
2018-12-20T00:41:07.045Z,8.17
2018-12-20T00:43:35.658Z,8.43
2018-12-20T00:46:04.517Z,8.23
2018-12-20T00:48:33.129Z,8.20
2018-12-20T00:51:02.408Z,7.70
2018-12-20T00:53:32.928Z,8.83
2018-12-20T00:56:01.688Z,8.17
2018-12-20T00:58:31.283Z,8.67
2018-12-20T01:01:00.506Z,8.33
2018-12-20T01:03:29.842Z,8.90
2018-12-20T01:05:59.116Z,8.90
2018-12-20T01:08:27.865Z,9.40
2018-12-20T01:10:56.752Z,8.10
2018-12-20T01:13:25.564Z,9.60
2018-12-20T01:15:54.406Z,8.50
2018-12-20T01:18:23.108Z,8.57
2018-12-20T01:20:51.750Z,8.97
2018-12-20T01:23:21.313Z,9.30
2018-12-20T01:25:50.725Z,9.37
2018-12-20T01:28:20.059Z,9.63
2018-12-20T01:30:48.612Z,8.43
2018-12-20T01:33:17.334Z,8.80
2018-12-20T01:35:45.916Z,9.90
2018-12-20T01:38:14.885Z,9.30
2018-12-20T01:40:43.513Z,9.07
2018-12-20T01:43:13.190Z,9.20
2018-12-20T01:45:41.808Z,9.13
2018-12-20T01:48:10.382Z,8.80
2018-12-20T01:50:38.958Z,8.90
2018-12-20T01:53:07.525Z,9.07
2018-12-20T01:55:36.486Z,9.70
2018-12-20T01:58:05.107Z,8.50
2018-12-20T02:00:33.854Z,9.17
2018-12-20T02:03:02.570Z,8.40
2018-12-20T02:05:31.436Z,8.37
2018-12-20T02:08:00.042Z,8.40
2018-12-20T02:10:30.030Z,8.37
2018-12-20T02:12:58.749Z,7.60
2018-12-20T02:15:28.017Z,8.87
2018-12-20T02:17:56.574Z,7.90
2018-12-20T02:20:25.891Z,7.80
2018-12-20T02:22:54.734Z,7.63
2018-12-20T02:25:24.165Z,8.17
2018-12-20T02:27:52.954Z,7.53
2018-12-20T02:30:21.710Z,7.00
2018-12-20T02:32:50.994Z,6.90
2018-12-20T02:35:20.123Z,6.60
2018-12-20T02:37:48.975Z,7.07
2018-12-20T02:40:17.755Z,6.47
2018-12-20T02:42:46.649Z,6.63
2018-12-20T02:45:15.213Z,6.03
2018-12-20T02:47:44.345Z,7.23
2018-12-20T02:50:13.635Z,7.57
2018-12-20T02:52:42.764Z,6.80
2018-12-20T02:55:11.353Z,6.67
2018-12-20T02:57:40.385Z,7.10
2018-12-20T03:00:09.193Z,7.50
2018-12-20T03:02:37.746Z,7.50
2018-12-20T03:05:06.720Z,8.13
2018-12-20T03:07:35.335Z,7.90
2018-12-20T03:10:04.371Z,8.80
2018-12-20T03:12:32.953Z,8.87
2018-12-20T03:15:01.389Z,9.00
2018-12-20T03:17:29.871Z,8.70
2018-12-20T03:19:58.560Z,9.30
2018-12-20T03:22:27.284Z,8.50
2018-12-20T03:24:56.901Z,8.37
2018-12-20T03:27:25.560Z,7.77
2018-12-20T03:29:54.914Z,7.97
2018-12-20T03:32:24.445Z,8.27
2018-12-20T03:34:53.133Z,8.67
2018-12-20T03:37:21.701Z,8.43
2018-12-20T03:39:50.282Z,7.60
2018-12-20T03:42:18.902Z,8.20
2018-12-20T03:44:47.744Z,7.50
2018-12-20T03:47:16.676Z,8.13
2018-12-20T03:49:45.251Z,8.07
2018-12-20T03:52:13.865Z,7.07
2018-12-20T03:54:43.589Z,7.50
2018-12-20T03:57:12.454Z,7.23
2018-12-20T03:59:41.128Z,6.93
2018-12-20T04:02:10.525Z,7.20
2018-12-20T04:04:39.511Z,7.23
2018-12-20T04:07:08.446Z,7.07
2018-12-20T04:09:37.158Z,6.40
2018-12-20T04:12:06.077Z,6.43
2018-12-20T04:14:34.831Z,6.67
2018-12-20T04:17:03.725Z,6.17
2018-12-20T04:19:33.090Z,5.77
2018-12-20T04:22:01.931Z,5.80
2018-12-20T04:24:30.771Z,5.83
2018-12-20T04:26:59.452Z,5.30
2018-12-20T04:29:28.209Z,4.87
2018-12-20T04:31:57.734Z,5.40
2018-12-20T04:34:26.711Z,5.10
2018-12-20T04:36:55.598Z,4.97
2018-12-20T04:39:24.323Z,4.90
2018-12-20T04:41:52.980Z,4.70
2018-12-20T04:44:21.586Z,4.47
2018-12-20T04:46:51.281Z,4.33
2018-12-20T04:49:20.059Z,4.43
2018-12-20T04:51:49.174Z,4.20
2018-12-20T04:54:18.094Z,4.20
2018-12-20T04:56:46.703Z,4.30
2018-12-20T04:59:15.676Z,4.03
2018-12-20T05:01:44.784Z,4.30
2018-12-20T05:04:13.973Z,4.13
2018-12-20T05:06:42.570Z,4.57
2018-12-20T05:09:11.349Z,4.80
2018-12-20T05:11:40.578Z,4.10
2018-12-20T05:14:09.408Z,4.63
2018-12-20T05:16:38.392Z,4.33
2018-12-20T05:19:07.250Z,4.50
2018-12-20T05:21:36.459Z,4.37
2018-12-20T05:24:05.043Z,4.10
2018-12-20T05:26:33.906Z,4.70
2018-12-20T05:29:02.805Z,4.53
2018-12-20T05:31:31.707Z,4.77
2018-12-20T05:34:00.936Z,4.97
2018-12-20T05:36:29.816Z,4.53
2018-12-20T05:38:58.623Z,3.93
2018-12-20T05:41:27.601Z,4.73
2018-12-20T05:43:56.918Z,4.67
2018-12-20T05:46:25.878Z,4.17
2018-12-20T05:48:55.350Z,4.73
2018-12-20T05:51:23.988Z,5.27
2018-12-20T05:53:52.558Z,5.23
2018-12-20T05:56:21.763Z,5.70
2018-12-20T05:58:50.321Z,5.60
2018-12-20T06:01:18.786Z,5.43
2018-12-20T06:03:47.342Z,6.10
2018-12-20T06:06:16.282Z,7.50
2018-12-20T06:08:44.921Z,8.10
2018-12-20T06:11:13.570Z,8.23
2018-12-20T06:13:42.441Z,9.57
2018-12-20T06:16:12.987Z,14.10
2018-12-20T06:18:41.771Z,10.40
2018-12-20T06:21:10.316Z,8.87
2018-12-20T06:23:39.066Z,9.40
2018-12-20T06:26:07.539Z,11.47
2018-12-20T06:28:36.040Z,11.53
2018-12-20T06:31:04.599Z,10.87
2018-12-20T06:33:33.207Z,10.27
2018-12-20T06:36:01.690Z,10.17
2018-12-20T06:38:30.241Z,10.37
2018-12-20T06:41:00.025Z,9.77
2018-12-20T06:43:29.266Z,11.10
2018-12-20T06:45:58.328Z,10.97
2018-12-20T06:48:26.861Z,11.60
2018-12-20T06:50:55.403Z,11.03
2018-12-20T06:53:23.926Z,11.87
2018-12-20T06:55:52.429Z,13.47
2018-12-20T06:58:21.003Z,13.33
2018-12-20T07:00:49.482Z,12.60
2018-12-20T07:03:17.991Z,11.00
2018-12-20T07:05:47.314Z,10.73
2018-12-20T07:08:16.128Z,12.00
2018-12-20T07:10:45.023Z,11.43
2018-12-20T07:13:13.527Z,12.93
2018-12-20T07:15:42.233Z,10.60
2018-12-20T07:18:10.697Z,11.47
2018-12-20T07:20:39.986Z,11.63
2018-12-20T07:23:08.574Z,11.40
2018-12-20T07:25:37.122Z,11.67
2018-12-20T07:28:05.621Z,11.20
2018-12-20T07:30:34.836Z,13.40
2018-12-20T07:33:03.421Z,14.23
2018-12-20T07:35:31.933Z,13.53
2018-12-20T07:38:00.459Z,13.47
2018-12-20T07:40:28.947Z,15.37
2018-12-20T07:42:57.469Z,19.30
2018-12-20T07:45:26.019Z,19.50
2018-12-20T07:47:54.578Z,18.67
2018-12-20T07:50:23.109Z,20.77
2018-12-20T07:52:51.666Z,20.80
2018-12-20T07:55:20.237Z,17.97
2018-12-20T07:57:48.849Z,17.67
2018-12-20T08:00:17.399Z,14.90
2018-12-20T08:02:45.937Z,19.37
2018-12-20T08:05:15.204Z,17.23
2018-12-20T08:07:43.675Z,13.30
2018-12-20T08:10:12.175Z,11.80
2018-12-20T08:12:40.707Z,13.53
2018-12-20T08:15:09.419Z,10.83
2018-12-20T08:17:37.949Z,11.37
2018-12-20T08:20:07.339Z,11.43
2018-12-20T08:22:35.843Z,8.23
2018-12-20T08:25:04.490Z,8.20
2018-12-20T08:27:33.025Z,7.60
2018-12-20T08:30:01.542Z,8.10
2018-12-20T08:32:30.173Z,5.17
2018-12-20T08:34:58.809Z,5.67
2018-12-20T08:37:27.307Z,5.73
2018-12-20T08:39:55.891Z,5.93
2018-12-20T08:42:24.465Z,5.37
2018-12-20T08:44:53.062Z,5.63
2018-12-20T08:47:21.615Z,5.20
2018-12-20T08:49:50.298Z,4.93
2018-12-20T08:52:19.555Z,5.37
2018-12-20T08:54:48.203Z,4.80
2018-12-20T08:57:16.919Z,6.87
2018-12-20T08:59:45.391Z,5.50
2018-12-20T09:02:13.955Z,6.30
2018-12-20T09:04:43.193Z,5.50
2018-12-20T09:07:11.680Z,4.90
2018-12-20T09:09:41.101Z,4.93
2018-12-20T09:12:09.612Z,5.23
2018-12-20T09:14:38.159Z,5.07
2018-12-20T09:17:06.779Z,5.67
2018-12-20T09:19:35.304Z,6.20
2018-12-20T09:22:03.913Z,4.50
2018-12-20T09:24:32.461Z,4.20
2018-12-20T09:27:00.996Z,3.90
2018-12-20T09:29:29.585Z,2.83
2018-12-20T09:31:58.140Z,2.17
2018-12-20T09:34:26.737Z,2.20
2018-12-20T09:36:55.281Z,4.80
2018-12-20T09:39:24.908Z,7.77
2018-12-20T09:41:53.414Z,5.33
2018-12-20T09:44:21.984Z,5.90
2018-12-20T09:46:52.531Z,3.20
2018-12-20T09:49:21.022Z,2.17
2018-12-20T09:51:49.508Z,2.30
2018-12-20T09:54:17.969Z,1.90
2018-12-20T09:56:46.515Z,2.00
2018-12-20T09:59:15.739Z,2.07
2018-12-20T10:01:44.304Z,1.83
2018-12-20T10:04:12.790Z,1.93
2018-12-20T10:06:41.339Z,1.90
2018-12-20T10:09:09.806Z,2.27
2018-12-20T10:11:38.301Z,2.87
2018-12-20T10:14:06.790Z,2.20
2018-12-20T10:16:35.308Z,2.43
2018-12-20T10:19:04.104Z,1.80
2018-12-20T10:21:32.751Z,1.50
2018-12-20T10:24:01.288Z,1.40
2018-12-20T10:26:30.593Z,1.47
2018-12-20T10:28:59.271Z,2.50
2018-12-20T10:31:27.742Z,2.03
2018-12-20T10:33:56.275Z,1.90
2018-12-20T10:36:25.943Z,2.10
2018-12-20T10:38:54.465Z,4.90
2018-12-20T10:41:23.019Z,2.40
2018-12-20T10:43:51.556Z,2.43
2018-12-20T10:46:20.219Z,2.60
2018-12-20T10:48:48.723Z,2.47
2018-12-20T10:51:17.502Z,4.70
2018-12-20T10:53:45.997Z,2.50
2018-12-20T10:56:14.534Z,1.73
2018-12-20T10:58:43.002Z,3.07
2018-12-20T11:01:16.796Z,2.70
2018-12-20T11:03:47.005Z,2.23
2018-12-20T11:07:19.641Z,2.37
2018-12-20T11:09:53.486Z,3.37
2018-12-20T11:12:26.541Z,3.00
2018-12-20T11:14:55.528Z,4.73
2018-12-20T11:17:24.107Z,3.93
2018-12-20T11:19:52.624Z,2.50
2018-12-20T11:22:21.167Z,1.60
2018-12-20T11:24:49.666Z,1.27
2018-12-20T11:27:18.177Z,2.27
2018-12-20T11:29:46.678Z,1.70
2018-12-20T11:32:15.227Z,1.70
2018-12-20T11:34:43.737Z,1.90
2018-12-20T11:37:12.227Z,2.50
2018-12-20T11:39:40.845Z,1.97
2018-12-20T11:42:09.435Z,2.83
2018-12-20T11:44:38.010Z,2.07
2018-12-20T11:47:11.225Z,1.97
2018-12-20T11:49:39.826Z,1.50
2018-12-20T11:52:08.395Z,1.40
2018-12-20T11:54:36.919Z,1.53
2018-12-20T11:57:05.381Z,1.30
2018-12-20T11:59:33.863Z,1.30
2018-12-20T12:02:03.183Z,2.47
2018-12-20T12:04:32.369Z,2.77
2018-12-20T12:07:01.010Z,3.40
2018-12-20T12:09:29.501Z,3.47
2018-12-20T12:11:58.355Z,1.93
2018-12-20T12:14:27.666Z,2.30
2018-12-20T12:16:56.326Z,3.10
2018-12-20T12:19:24.901Z,3.67
2018-12-20T12:21:53.545Z,3.80
2018-12-20T12:24:21.995Z,4.50
2018-12-20T12:26:50.571Z,4.57
2018-12-20T12:29:19.196Z,8.67
2018-12-20T12:31:47.887Z,8.77
2018-12-20T12:34:16.445Z,6.07
2018-12-20T12:36:45.028Z,5.83
2018-12-20T12:39:13.567Z,7.77
2018-12-20T12:41:42.179Z,3.80
2018-12-20T12:44:11.485Z,2.80
2018-12-20T12:46:40.022Z,3.60
2018-12-20T12:49:09.685Z,3.73
2018-12-20T12:51:38.191Z,6.10
2018-12-20T12:54:07.501Z,5.80
2018-12-20T12:56:36.110Z,4.07
2018-12-20T12:59:04.761Z,3.63
2018-12-20T13:01:33.970Z,3.07
2018-12-20T13:04:02.502Z,4.07
2018-12-20T13:06:31.041Z,2.57
2018-12-20T13:08:59.572Z,5.50
2018-12-20T13:11:28.098Z,2.60
2018-12-20T13:13:57.139Z,3.30
2018-12-20T13:16:25.809Z,2.33
2018-12-20T13:18:55.618Z,1.93
2018-12-20T13:21:24.867Z,2.67
2018-12-20T13:23:53.409Z,2.17
2018-12-20T13:26:22.063Z,2.70
2018-12-20T13:28:50.741Z,3.93
2018-12-20T13:31:19.241Z,3.97
2018-12-20T13:33:47.767Z,2.77
2018-12-20T13:36:16.871Z,2.90
2018-12-20T13:38:45.456Z,3.63
2018-12-20T13:41:14.041Z,2.13
2018-12-20T13:43:42.531Z,2.27
2018-12-20T13:46:11.074Z,2.33
2018-12-20T13:48:39.582Z,2.30
2018-12-20T13:51:08.158Z,1.73
2018-12-20T13:53:36.863Z,2.47
2018-12-20T13:56:05.937Z,3.23
2018-12-20T13:58:34.580Z,4.50
2018-12-20T14:01:03.221Z,3.57
2018-12-20T14:03:31.811Z,2.37
2018-12-20T14:06:00.553Z,1.90
2018-12-20T14:08:29.239Z,3.00
2018-12-20T14:10:57.794Z,4.97
2018-12-20T14:13:26.346Z,2.70
2018-12-20T14:15:54.910Z,2.00
2018-12-20T14:18:30.616Z,2.40
2018-12-20T14:20:54.123Z,1.50
2018-12-20T14:23:22.616Z,1.97
2018-12-20T14:25:51.158Z,1.60
2018-12-20T14:28:19.804Z,2.43
2018-12-20T14:30:48.282Z,3.63
2018-12-20T14:33:16.904Z,3.27
2018-12-20T14:35:45.429Z,3.90
2018-12-20T14:38:13.953Z,2.90
2018-12-20T14:40:42.814Z,2.27
2018-12-20T14:43:11.414Z,3.40
2018-12-20T14:45:39.959Z,2.60
2018-12-20T14:48:19.291Z,3.37
2018-12-20T14:50:47.867Z,3.80
2018-12-20T14:53:16.374Z,4.97
2018-12-20T14:55:44.911Z,4.50
2018-12-20T14:58:13.470Z,3.43
2018-12-20T15:00:42.911Z,3.70
2018-12-20T15:03:11.471Z,4.27
2018-12-20T15:05:40.015Z,3.23
2018-12-20T15:08:08.586Z,3.90
2018-12-20T15:10:37.210Z,3.10
2018-12-20T15:13:05.672Z,4.17
2018-12-20T15:15:34.253Z,2.23
2018-12-20T15:18:02.922Z,2.93
2018-12-20T15:20:40.278Z,5.17
2018-12-20T15:23:02.559Z,3.53
2018-12-20T15:25:31.521Z,3.63
2018-12-20T15:28:00.051Z,4.33
2018-12-20T15:30:29.549Z,2.40
2018-12-20T15:32:58.194Z,4.27
2018-12-20T15:35:27.022Z,5.27
2018-12-20T15:37:55.656Z,4.30
2018-12-20T15:40:24.184Z,4.30
2018-12-20T15:42:52.807Z,4.00
2018-12-20T15:45:22.019Z,3.97
2018-12-20T15:47:50.613Z,3.50
2018-12-20T15:50:19.107Z,3.40
2018-12-20T15:52:47.799Z,3.70
2018-12-20T15:55:16.380Z,4.40
2018-12-20T15:57:45.165Z,5.87
2018-12-20T16:00:13.731Z,5.07
2018-12-20T16:02:42.361Z,4.80
2018-12-20T16:05:10.921Z,3.50
2018-12-20T16:07:40.142Z,4.17
2018-12-20T16:10:10.310Z,4.13
2018-12-20T16:12:38.925Z,4.67
2018-12-20T16:15:08.311Z,6.57
2018-12-20T16:17:37.093Z,6.77
2018-12-20T16:20:06.880Z,5.87
2018-12-20T16:22:35.381Z,4.90
2018-12-20T16:25:04.726Z,5.77
2018-12-20T16:27:33.280Z,5.43
2018-12-20T16:30:01.856Z,6.50
2018-12-20T16:32:30.523Z,4.90
2018-12-20T16:34:59.685Z,5.00
2018-12-20T16:37:28.184Z,6.57
2018-12-20T16:39:57.434Z,6.13
2018-12-20T16:42:25.990Z,5.67
2018-12-20T16:44:55.107Z,5.07
2018-12-20T16:47:23.756Z,4.67
2018-12-20T16:49:52.409Z,4.80
2018-12-20T16:52:20.973Z,4.87
2018-12-20T16:54:49.715Z,5.00
2018-12-20T16:57:18.522Z,5.47
2018-12-20T16:59:47.103Z,4.47
2018-12-20T17:02:16.766Z,4.20
2018-12-20T17:04:45.443Z,3.73
2018-12-20T17:07:14.159Z,4.20
2018-12-20T17:09:43.257Z,3.43
2018-12-20T17:12:12.198Z,3.97
2018-12-20T17:14:40.750Z,5.80
2018-12-20T17:17:09.544Z,4.10
2018-12-20T17:19:38.100Z,3.77
2018-12-20T17:22:06.740Z,3.73
2018-12-20T17:24:38.234Z,6.60
2018-12-20T17:27:06.889Z,4.63
2018-12-20T17:29:35.777Z,6.20
2018-12-20T17:32:04.493Z,8.13
2018-12-20T17:34:33.163Z,73.87
2018-12-20T17:37:01.691Z,43.60
2018-12-20T17:39:30.338Z,18.77
2018-12-20T17:41:58.997Z,9.20
2018-12-20T17:44:28.319Z,5.07
2018-12-20T17:46:57.375Z,5.33
2018-12-20T17:49:30.479Z,10.23
2018-12-20T17:51:56.835Z,8.80
2018-12-20T17:54:26.057Z,9.00
2018-12-20T17:56:54.902Z,6.97
2018-12-20T17:59:23.605Z,16.07
2018-12-20T18:01:52.347Z,11.47
2018-12-20T18:04:21.062Z,11.03
2018-12-20T18:06:49.653Z,8.63
2018-12-20T18:09:18.535Z,6.90
2018-12-20T18:11:47.227Z,8.50
2018-12-20T18:14:15.861Z,8.30
2018-12-20T18:16:44.512Z,6.37
2018-12-20T18:19:13.381Z,7.30
2018-12-20T18:21:42.000Z,6.33
2018-12-20T18:24:10.639Z,7.17
2018-12-20T18:26:39.907Z,5.23
2018-12-20T18:29:08.598Z,6.27
2018-12-20T18:31:37.341Z,4.20
2018-12-20T18:34:05.901Z,3.70
2018-12-20T18:36:34.617Z,4.33
2018-12-20T18:39:03.926Z,3.00
2018-12-20T18:41:32.552Z,4.90
2018-12-20T18:44:01.165Z,9.10
2018-12-20T18:46:30.782Z,7.17
2018-12-20T18:48:59.496Z,8.80
2018-12-20T18:51:28.366Z,5.37
2018-12-20T18:53:56.945Z,5.90
2018-12-20T18:56:25.746Z,6.50
2018-12-20T18:58:54.440Z,4.20
2018-12-20T19:01:23.256Z,4.77
2018-12-20T19:03:52.159Z,4.93
2018-12-20T19:06:20.797Z,6.10
2018-12-20T19:08:49.543Z,8.13
2018-12-20T19:11:18.249Z,8.13
2018-12-20T19:13:47.082Z,5.23
2018-12-20T19:16:15.729Z,4.27
2018-12-20T19:18:44.560Z,4.93
2018-12-20T19:21:13.359Z,6.20
2018-12-20T19:23:42.036Z,8.97
2018-12-20T19:26:10.804Z,8.63
2018-12-20T19:28:39.362Z,6.23
2018-12-20T19:31:08.068Z,5.67
2018-12-20T19:33:37.535Z,5.97
2018-12-20T19:36:06.116Z,6.87
2018-12-20T19:38:34.821Z,9.27
2018-12-20T19:41:04.410Z,8.00
2018-12-20T19:43:33.172Z,12.47
2018-12-20T19:46:01.882Z,14.70
2018-12-20T19:48:30.631Z,10.67
2018-12-20T19:50:59.265Z,17.10
2018-12-20T19:53:27.925Z,21.17
2018-12-20T19:55:57.125Z,10.03
2018-12-20T19:58:25.707Z,12.77
2018-12-20T20:00:54.513Z,12.80
2018-12-20T20:03:23.316Z,11.50
2018-12-20T20:05:52.004Z,6.20
2018-12-20T20:08:20.711Z,8.43
2018-12-20T20:10:49.629Z,3.90
2018-12-20T20:13:19.490Z,15.83
2018-12-20T20:15:48.358Z,9.20
2018-12-20T20:18:17.140Z,6.13
2018-12-20T20:20:45.758Z,4.97
2018-12-20T20:23:15.068Z,5.13
2018-12-20T20:25:43.738Z,4.73
2018-12-20T20:28:12.947Z,5.80
2018-12-20T20:30:41.483Z,5.87
2018-12-20T20:33:10.934Z,4.30
2018-12-20T20:35:39.547Z,4.80
2018-12-20T20:38:08.152Z,4.30
2018-12-20T20:40:36.727Z,3.93
2018-12-20T20:43:05.508Z,3.33
2018-12-20T20:45:34.141Z,3.63
2018-12-20T20:48:03.411Z,2.43
2018-12-20T20:50:32.432Z,3.77
2018-12-20T20:53:01.061Z,1.90
2018-12-20T20:55:29.832Z,1.93
2018-12-20T20:57:58.453Z,2.33
2018-12-20T21:00:27.128Z,2.30
2018-12-20T21:02:56.916Z,2.77
2018-12-20T21:05:25.644Z,2.70
2018-12-20T21:07:54.235Z,3.17
2018-12-20T21:10:23.334Z,2.37
2018-12-20T21:12:51.857Z,3.30
2018-12-20T21:15:20.425Z,3.40
2018-12-20T21:17:49.114Z,3.10
2018-12-20T21:20:17.770Z,3.00
2018-12-20T21:22:47.276Z,3.00
2018-12-20T21:25:15.853Z,3.10
2018-12-20T21:27:45.003Z,2.90
2018-12-20T21:30:14.286Z,2.10
2018-12-20T21:32:42.812Z,2.47
2018-12-20T21:35:11.389Z,1.90
2018-12-20T21:37:39.919Z,2.10
2018-12-20T21:40:08.441Z,2.00
2018-12-20T21:42:37.022Z,1.73
2018-12-20T21:45:07.249Z,1.90
2018-12-20T21:47:35.786Z,2.13
2018-12-20T21:50:05.565Z,2.40
2018-12-20T21:52:34.334Z,2.30
2018-12-20T21:55:03.235Z,2.70
2018-12-20T21:57:31.748Z,3.03
2018-12-20T22:00:01.304Z,4.17
2018-12-20T22:02:30.382Z,4.03
2018-12-20T22:04:59.185Z,3.60
2018-12-20T22:07:27.968Z,3.37
2018-12-20T22:09:56.515Z,3.40
2018-12-20T22:12:25.169Z,3.23
2018-12-20T22:14:54.611Z,2.90
2018-12-20T22:17:23.185Z,3.60
2018-12-20T22:19:58.585Z,3.50
2018-12-20T22:22:22.310Z,3.60
2018-12-20T22:24:50.874Z,3.17
2018-12-20T22:27:19.442Z,2.50
2018-12-20T22:29:47.987Z,2.53
2018-12-20T22:32:16.570Z,2.60
2018-12-20T22:34:45.253Z,2.47
2018-12-20T22:37:13.848Z,2.60
2018-12-20T22:39:42.339Z,2.73
2018-12-20T22:42:10.916Z,2.70
2018-12-20T22:44:39.430Z,2.40
2018-12-20T22:47:08.068Z,2.80
2018-12-20T22:49:36.553Z,3.10
2018-12-20T22:52:05.435Z,2.90
2018-12-20T22:54:34.004Z,3.53
2018-12-20T22:57:02.582Z,3.13
2018-12-20T22:59:31.196Z,3.60
2018-12-20T23:01:59.698Z,3.80
2018-12-20T23:04:28.243Z,6.23
2018-12-20T23:06:56.849Z,4.50
2018-12-20T23:09:27.755Z,4.93
2018-12-20T23:11:56.380Z,6.10
2018-12-20T23:14:24.966Z,3.70
2018-12-20T23:16:53.925Z,5.50
2018-12-20T23:19:22.789Z,4.40
2018-12-20T23:21:51.419Z,3.10
2018-12-20T23:24:20.580Z,3.63
2018-12-20T23:26:49.095Z,3.20
2018-12-20T23:29:17.580Z,3.77
2018-12-20T23:31:46.130Z,2.97
2018-12-20T23:34:14.878Z,3.07
2018-12-20T23:36:43.484Z,2.80
2018-12-20T23:39:12.151Z,2.37
2018-12-20T23:41:41.570Z,2.50
2018-12-20T23:44:09.990Z,2.47
2018-12-20T23:46:38.611Z,2.13
2018-12-20T23:49:07.884Z,2.23
2018-12-20T23:51:36.363Z,2.47
2018-12-20T23:54:04.956Z,2.13
2018-12-20T23:56:33.573Z,2.10
2018-12-20T23:59:02.042Z,2.27
